Time;durP1;ratioP1;P1;durP2;ratioP2;P2;SDS_P1;SDS_P2;PMS_P1;PMS_P2;Temp;Humidity;BMP_temperature;BMP_pressure;BME280_temperature;BME280_humidity;BME280_pressure;Samples;Min_cycle;Max_cycle;Signal;HPM_P1;HPM_P2
2022/04/03 00:00:25;;;;;;;21.90;12.80;;;;;;;2.00;80.69;98795.44;4509298;31;33585;-66
2022/04/03 00:02:53;;;;;;;21.48;13.00;;;;;;;1.98;80.84;98798.31;4514858;31;34283;-66
2022/04/03 00:05:20;;;;;;;20.83;12.55;;;;;;;2.45;79.45;98792.59;4515000;31;33884;-67
2022/04/03 00:07:47;;;;;;;20.37;12.20;;;;;;;3.00;76.22;98794.53;4514639;31;34224;-67
2022/04/03 00:10:15;;;;;;;17.98;11.68;;;;;;;2.09;79.71;98804.00;4514899;31;33574;-66
2022/04/03 00:12:46;;;;;;;17.87;11.10;;;;;;;2.23;79.87;98802.88;4510700;31;33968;-67
2022/04/03 00:15:14;;;;;;;19.70;10.90;;;;;;;2.36;78.94;98801.97;4515380;31;34200;-66
2022/04/03 00:17:43;;;;;;;18.20;10.90;;;;;;;2.61;78.19;98804.59;4500656;31;34408;-66
2022/04/03 00:20:11;;;;;;;17.48;10.10;;;;;;;2.53;77.15;98805.72;4500108;31;33787;-66
2022/04/03 00:22:39;;;;;;;17.58;10.60;;;;;;;2.56;77.75;98810.63;4515074;31;34118;-66
2022/04/03 00:25:07;;;;;;;16.15;10.13;;;;;;;2.15;79.17;98808.50;4514559;31;34287;-67
2022/04/03 00:27:35;;;;;;;18.55;10.90;;;;;;;2.13;79.61;98814.06;4514641;31;32705;-67
2022/04/03 00:30:02;;;;;;;17.05;10.57;;;;;;;1.97;80.59;98812.72;4509938;31;160290;-72
2022/04/03 00:32:30;;;;;;;18.20;11.15;;;;;;;2.04;80.12;98821.53;4501531;31;35200;-71
2022/04/03 00:34:57;;;;;;;17.52;10.95;;;;;;;1.63;81.89;98813.97;4513207;31;35119;-67
2022/04/03 00:37:25;;;;;;;16.02;9.68;;;;;;;2.04;80.92;98815.38;4506387;31;33643;-66
2022/04/03 00:39:52;;;;;;;14.15;8.35;;;;;;;1.94;81.19;98823.84;4514391;31;33602;-66
2022/04/03 00:42:20;;;;;;;3.92;2.45;;;;;;;2.20;79.86;98825.56;4515446;31;34253;-66
2022/04/03 00:44:47;;;;;;;18.42;10.77;;;;;;;2.35;79.09;98830.56;4515893;31;34232;-66
2022/04/03 00:47:17;;;;;;;2.17;1.15;;;;;;;1.53;81.74;98827.78;4512682;31;33571;-66
2022/04/03 00:49:45;;;;;;;16.10;9.68;;;;;;;1.78;81.27;98835.87;4499380;31;34576;-69
2022/04/03 00:52:13;;;;;;;15.85;9.60;;;;;;;1.40;83.71;98828.69;4485619;31;34999;-66
2022/04/03 00:54:40;;;;;;;18.08;10.00;;;;;;;1.62;83.30;98831.03;4499550;31;34268;-66
2022/04/03 00:57:08;;;;;;;18.50;11.75;;;;;;;1.51;84.08;98839.72;4501796;31;33856;-66
2022/04/03 00:59:35;;;;;;;18.20;11.05;;;;;;;1.56;83.21;98839.91;4492485;31;34725;-66
2022/04/03 01:02:04;;;;;;;19.37;10.70;;;;;;;1.64;82.70;98843.16;4517819;31;34153;-66
2022/04/03 01:04:32;;;;;;;0.95;0.88;;;;;;;1.32;84.88;98842.28;4517617;31;34316;-74
2022/04/03 01:06:59;;;;;;;18.85;11.10;;;;;;;1.47;84.60;98844.69;4517594;31;33551;-67
2022/04/03 01:09:27;;;;;;;18.77;11.27;;;;;;;1.36;84.39;98850.66;4517530;31;33903;-66
2022/04/03 01:11:56;;;;;;;0.75;0.75;;;;;;;1.46;83.53;98850.22;4517129;31;34243;-70
2022/04/03 01:14:35;;;;;;;19.62;11.23;;;;;;;1.78;82.93;98853.78;4517887;31;34072;-67
2022/04/03 01:17:04;;;;;;;18.48;11.00;;;;;;;1.46;84.14;98858.25;4517722;31;34477;-66
2022/04/03 01:19:32;;;;;;;18.35;11.15;;;;;;;1.28;84.91;98859.75;4517165;31;33798;-66
2022/04/03 01:22:00;;;;;;;22.50;12.30;;;;;;;1.50;84.45;98862.16;4517439;31;35035;-67
2022/04/03 01:24:30;;;;;;;20.90;11.80;;;;;;;2.01;81.57;98864.78;4516995;31;34095;-67
2022/04/03 01:27:03;;;;;;;5.97;1.98;;;;;;;1.59;83.02;98861.69;4517995;31;33845;-67
2022/04/03 01:29:31;;;;;;;18.02;10.40;;;;;;;1.94;82.34;98866.66;4517577;31;34734;-66
2022/04/03 01:31:58;;;;;;;19.45;10.43;;;;;;;1.64;83.38;98871.72;4517510;31;34278;-68
2022/04/03 01:34:26;;;;;;;18.58;10.27;;;;;;;1.78;82.74;98870.66;4517454;31;34352;-74
2022/04/03 01:36:53;;;;;;;17.17;10.82;;;;;;;1.64;83.27;98864.56;4517390;31;34605;-67
2022/04/03 01:39:21;;;;;;;20.55;11.60;;;;;;;1.87;82.35;98873.91;4517683;31;33379;-67
2022/04/03 01:41:48;;;;;;;20.75;11.18;;;;;;;2.50;79.50;98873.06;4517564;31;35113;-67
2022/04/03 01:44:16;;;;;;;20.77;11.77;;;;;;;2.08;81.06;98874.63;4517443;31;34885;-66
2022/04/03 01:46:43;;;;;;;21.10;11.80;;;;;;;2.68;78.33;98883.03;4517619;31;34211;-66
2022/04/03 01:49:11;;;;;;;17.77;11.02;;;;;;;2.82;77.41;98887.22;4517263;31;33898;-73
2022/04/03 01:51:39;;;;;;;21.02;11.30;;;;;;;2.75;77.64;98891.03;4517453;31;34123;-67
2022/04/03 01:54:07;;;;;;;19.58;11.10;;;;;;;2.33;79.42;98888.84;4517519;31;34182;-66
2022/04/03 01:56:35;;;;;;;19.80;11.07;;;;;;;1.69;82.35;98890.66;4517127;31;34605;-67
2022/04/03 01:59:03;;;;;;;21.73;12.15;;;;;;;1.75;82.45;98902.34;4517365;31;33975;-67
2022/04/03 02:01:31;;;;;;;23.48;12.95;;;;;;;1.87;82.09;98897.16;4517132;31;34637;-73
2022/04/03 02:04:00;;;;;;;21.37;11.98;;;;;;;2.17;81.02;98892.06;4517274;31;34420;-67
2022/04/03 02:06:30;;;;;;;22.52;12.20;;;;;;;1.99;81.79;98903.47;4515170;31;34050;-68
2022/04/03 02:08:58;;;;;;;20.58;11.45;;;;;;;2.18;81.07;98907.91;4506298;31;34771;-67
2022/04/03 02:11:26;;;;;;;23.55;12.25;;;;;;;2.41;78.70;98906.50;4505089;31;34308;-67
2022/04/03 02:13:53;;;;;;;20.33;11.82;;;;;;;2.64;78.46;98911.31;4517412;31;34322;-74
2022/04/03 02:16:22;;;;;;;19.27;11.52;;;;;;;2.17;80.05;98906.25;4517632;31;33885;-66
2022/04/03 02:18:49;;;;;;;21.92;12.05;;;;;;;1.87;81.91;98913.22;4517421;31;33707;-67
2022/04/03 02:21:17;;;;;;;16.35;8.68;;;;;;;2.01;81.76;98912.94;4516720;31;34300;-67
2022/04/03 02:23:44;;;;;;;17.37;9.90;;;;;;;2.15;80.86;98904.81;4517240;31;34995;-66
2022/04/03 02:26:12;;;;;;;20.20;10.80;;;;;;;1.53;82.86;98901.81;4517449;31;33837;-66
2022/04/03 02:28:40;;;;;;;18.35;10.25;;;;;;;1.75;82.89;98908.53;4516961;31;33684;-66
2022/04/03 02:31:07;;;;;;;15.05;9.20;;;;;;;1.74;82.85;98909.53;4516939;31;35205;-66
2022/04/03 02:33:35;;;;;;;19.95;11.18;;;;;;;2.22;80.49;98917.13;4516896;31;34842;-65
2022/04/03 02:36:03;;;;;;;15.68;9.45;;;;;;;1.18;85.08;98924.31;4516932;31;33623;-66
2022/04/03 02:38:30;;;;;;;17.40;10.50;;;;;;;1.89;82.04;98924.53;4517365;31;34751;-66
2022/04/03 02:40:58;;;;;;;11.70;7.37;;;;;;;1.32;83.99;98927.78;4517185;31;34635;-66
2022/04/03 02:43:25;;;;;;;17.62;10.52;;;;;;;1.55;82.71;98926.47;4516924;31;34879;-74
2022/04/03 02:45:52;;;;;;;23.70;14.35;;;;;;;1.54;83.63;98930.19;4516725;31;33869;-67
2022/04/03 02:48:20;;;;;;;24.50;14.50;;;;;;;1.41;84.52;98934.53;4517124;31;34002;-66
2022/04/03 02:50:48;;;;;;;23.45;13.65;;;;;;;1.32;84.87;98941.16;4517010;31;34081;-66
2022/04/03 02:53:16;;;;;;;18.98;11.23;;;;;;;1.27;85.26;98938.25;4517133;31;34220;-71
2022/04/03 02:55:44;;;;;;;18.45;10.95;;;;;;;1.48;84.85;98944.41;4516827;31;33818;-66
2022/04/03 02:58:11;;;;;;;3.70;2.75;;;;;;;1.40;84.68;98945.44;4516561;31;34630;-66
2022/04/03 03:00:39;;;;;;;12.57;7.72;;;;;;;1.76;83.13;98952.94;4513885;31;34937;-66
2022/04/03 03:03:07;;;;;;;13.35;7.68;;;;;;;1.71;82.33;98954.63;4516114;31;34050;-66
2022/04/03 03:05:36;;;;;;;15.23;9.32;;;;;;;1.64;82.77;98957.28;4515928;31;33850;-65
2022/04/03 03:08:04;;;;;;;14.57;8.93;;;;;;;1.80;82.40;98964.87;4517272;31;33896;-66
2022/04/03 03:10:31;;;;;;;12.82;8.13;;;;;;;2.13;81.38;98965.75;4512609;31;34182;-73
2022/04/03 03:12:59;;;;;;;11.77;7.30;;;;;;;1.94;80.84;98959.47;4515802;31;33991;-70
2022/04/03 03:15:26;;;;;;;12.70;7.03;;;;;;;2.18;80.48;98969.47;4516878;31;33705;-66
2022/04/03 03:17:54;;;;;;;11.73;6.93;;;;;;;2.00;80.86;98974.66;4516593;31;34856;-66
2022/04/03 03:20:22;;;;;;;9.85;6.87;;;;;;;2.45;78.58;98980.00;4516215;31;34087;-66
2022/04/03 03:22:49;;;;;;;9.88;5.95;;;;;;;2.24;79.86;98981.16;4509690;31;34243;-65
2022/04/03 03:25:16;;;;;;;9.68;6.55;;;;;;;2.53;77.97;98984.28;4515821;31;33746;-64
2022/04/03 03:27:47;;;;;;;10.05;6.80;;;;;;;2.48;78.64;98984.91;4516654;31;33669;-66
2022/04/03 03:30:15;;;;;;;8.45;6.18;;;;;;;2.38;79.38;98990.75;4514436;31;34045;-65
2022/04/03 03:32:43;;;;;;;8.25;5.68;;;;;;;2.97;77.22;98991.41;4515304;31;34299;-71
2022/04/03 03:35:10;;;;;;;10.27;6.65;;;;;;;2.87;77.66;99001.78;4514360;31;33357;-65
2022/04/03 03:37:38;;;;;;;9.38;6.22;;;;;;;2.96;77.52;98999.66;4516361;31;34689;-65
2022/04/03 03:40:07;;;;;;;7.80;5.55;;;;;;;2.78;78.05;99006.56;4516402;31;35006;-65
2022/04/03 03:42:35;;;;;;;8.00;5.53;;;;;;;2.58;78.43;99004.03;4500922;31;34289;-75
2022/04/03 03:45:02;;;;;;;8.05;5.85;;;;;;;2.86;77.89;99016.22;4500168;31;34540;-65
2022/04/03 03:47:31;;;;;;;8.25;5.65;;;;;;;3.17;76.64;99011.88;4515993;31;33945;-65
2022/04/03 03:49:59;;;;;;;8.45;5.55;;;;;;;2.96;77.34;99011.22;4516413;31;34190;-65
2022/04/03 03:52:26;;;;;;;9.32;6.10;;;;;;;2.66;78.13;99019.84;4513117;31;33798;-65
2022/04/03 03:54:54;;;;;;;9.55;5.82;;;;;;;3.03;76.69;99013.84;4510765;31;33821;-75
2022/04/03 03:57:22;;;;;;;9.90;6.30;;;;;;;2.97;77.40;99020.06;4515201;31;34634;-66
2022/04/03 03:59:49;;;;;;;9.27;5.97;;;;;;;2.87;77.51;99029.41;4513845;31;34960;-73
2022/04/03 04:02:17;;;;;;;10.93;7.20;;;;;;;2.58;78.13;99028.13;4500170;31;34219;-77
2022/04/03 04:04:45;;;;;;;12.05;7.75;;;;;;;2.36;79.24;99032.16;4500049;31;33650;-76
2022/04/03 04:07:12;;;;;;;0.50;0.50;;;;;;;2.56;78.46;99042.78;4500108;31;33940;-74
2022/04/03 04:09:41;;;;;;;11.23;7.37;;;;;;;2.89;77.16;99042.56;4505166;31;34181;-77
2022/04/03 04:12:09;;;;;;;9.98;6.72;;;;;;;2.88;77.59;99044.44;4516188;31;34986;-76
2022/04/03 04:14:38;;;;;;;10.48;7.20;;;;;;;2.57;78.14;99047.94;4516327;31;33829;-65
2022/04/03 04:17:08;;;;;;;9.07;5.78;;;;;;;2.58;78.07;99052.22;4515797;31;33765;-73
2022/04/03 04:19:36;;;;;;;7.95;5.55;;;;;;;2.88;77.05;99049.78;4515697;31;34226;-64
2022/04/03 04:22:03;;;;;;;8.82;6.07;;;;;;;2.68;77.83;99059.81;4515577;31;33440;-67
2022/04/03 04:24:31;;;;;;;9.00;6.18;;;;;;;2.98;76.66;99060.03;4515790;31;33552;-65
2022/04/03 04:27:00;;;;;;;10.48;7.05;;;;;;;3.04;76.62;99072.56;4516128;31;34579;-73
2022/04/03 04:29:27;;;;;;;10.27;6.20;;;;;;;2.99;76.55;99075.06;4515829;31;34202;-65
2022/04/03 04:31:55;;;;;;;9.65;6.55;;;;;;;3.02;76.76;99080.03;4517609;31;35082;-65
2022/04/03 04:34:22;;;;;;;8.50;5.75;;;;;;;2.93;77.36;99086.66;4517417;31;33710;-65
2022/04/03 04:36:50;;;;;;;9.40;5.55;;;;;;;3.12;76.65;99092.94;4518140;31;33822;-64
2022/04/03 04:39:17;;;;;;;9.85;5.72;;;;;;;2.95;77.05;99092.63;4512340;31;33861;-69
2022/04/03 04:41:45;;;;;;;7.57;5.40;;;;;;;3.23;75.64;99097.59;4515392;31;35028;-69
2022/04/03 04:44:12;;;;;;;8.30;5.90;;;;;;;3.29;75.13;99103.94;4516359;31;33695;-67
2022/04/03 04:46:39;;;;;;;8.43;5.57;;;;;;;3.80;73.49;99105.59;4515693;31;33691;-70
2022/04/03 04:49:07;;;;;;;7.68;5.35;;;;;;;3.24;75.06;99111.81;4516755;31;33720;-69
2022/04/03 04:51:35;;;;;;;8.88;5.82;;;;;;;3.24;75.57;99112.66;4515903;31;34790;-69
2022/04/03 04:54:02;;;;;;;9.63;6.30;;;;;;;3.65;73.80;99118.50;4516275;31;34634;-70
2022/04/03 04:56:30;;;;;;;10.02;5.90;;;;;;;3.38;74.55;99123.28;4516175;31;34278;-69
2022/04/03 04:58:57;;;;;;;7.95;5.37;;;;;;;3.71;73.79;99128.38;4516554;31;34150;-72
2022/04/03 05:01:25;;;;;;;8.20;5.80;;;;;;;3.77;73.28;99129.38;4515974;31;34590;-69
2022/04/03 05:03:52;;;;;;;7.65;5.45;;;;;;;3.87;72.88;99132.37;4516518;31;34408;-71
2022/04/03 05:06:22;;;;;;;9.48;6.22;;;;;;;4.05;72.50;99139.63;4516892;31;33857;-69
2022/04/03 05:08:50;;;;;;;9.05;6.20;;;;;;;3.78;72.72;99137.19;4512251;31;34284;-74
2022/04/03 05:11:18;;;;;;;10.40;6.28;;;;;;;3.65;73.20;99145.34;4515991;31;34311;-64
2022/04/03 05:13:46;;;;;;;10.38;7.20;;;;;;;3.52;74.21;99145.44;4517640;31;33732;-66
2022/04/03 05:16:13;;;;;;;12.35;8.75;;;;;;;4.37;71.11;99148.41;4516290;31;33891;-75
2022/04/03 05:18:41;;;;;;;12.70;9.07;;;;;;;3.78;72.69;99155.13;4517738;31;34154;-67
2022/04/03 05:21:10;;;;;;;9.77;7.05;;;;;;;3.78;73.13;99155.13;4517262;31;33745;-74
2022/04/03 05:23:38;;;;;;;10.05;6.57;;;;;;;4.10;72.22;99156.75;4517455;31;33776;-73
2022/04/03 05:26:06;;;;;;;7.35;4.93;;;;;;;3.76;72.77;99160.75;4517589;31;34051;-75
2022/04/03 05:28:35;;;;;;;5.85;4.32;;;;;;;3.91;72.24;99165.78;4517418;31;34430;-76
2022/04/03 05:31:03;;;;;;;6.12;4.43;;;;;;;4.01;71.75;99171.47;4517614;31;34539;-65
2022/04/03 05:33:31;;;;;;;6.43;4.47;;;;;;;3.53;73.59;99171.25;4517121;31;34492;-67
2022/04/03 05:35:58;;;;;;;5.90;4.10;;;;;;;3.44;73.61;99171.50;4517349;31;34279;-77
2022/04/03 05:38:25;;;;;;;6.72;4.32;;;;;;;3.54;73.42;99179.03;4517874;31;34175;-76
2022/04/03 05:40:53;;;;;;;6.32;4.12;;;;;;;3.50;74.37;99183.22;4517464;31;35131;-75
2022/04/03 05:43:20;;;;;;;6.70;4.80;;;;;;;3.60;74.01;99186.22;4517481;31;34259;-74
2022/04/03 05:45:48;;;;;;;6.05;4.28;;;;;;;3.64;73.74;99192.00;4517456;31;32287;-75
2022/04/03 05:48:16;;;;;;;6.68;4.70;;;;;;;3.93;72.63;99198.59;4514058;31;34258;-74
2022/04/03 05:50:44;;;;;;;7.03;4.70;;;;;;;3.69;73.48;99195.69;4501250;31;34147;-72
2022/04/03 05:53:12;;;;;;;6.30;4.62;;;;;;;3.59;74.07;99197.19;4516742;31;34639;-76
2022/04/03 05:55:39;;;;;;;7.40;4.90;;;;;;;3.61;74.53;99201.31;4517486;31;33589;-78
2022/04/03 05:58:07;;;;;;;2.85;2.05;;;;;;;4.03;72.05;99201.59;4517476;31;33732;-78
2022/04/03 06:00:34;;;;;;;7.80;5.30;;;;;;;3.76;73.24;99206.38;4517441;31;34215;-77
2022/04/03 06:03:02;;;;;;;7.72;5.07;;;;;;;4.07;72.02;99210.03;4514410;31;34578;-67
2022/04/03 06:05:32;;;;;;;1.95;1.65;;;;;;;3.85;72.68;99212.28;4500891;31;34580;-77
2022/04/03 06:08:01;;;;;;;6.53;4.82;;;;;;;3.77;73.18;99213.34;4501658;31;35117;-77
2022/04/03 06:10:29;;;;;;;8.93;5.50;;;;;;;3.36;74.65;99214.66;4501416;31;34204;-78
2022/04/03 06:13:02;;;;;;;9.63;6.47;;;;;;;3.56;74.24;99219.88;4501367;31;34488;-69
2022/04/03 06:15:38;;;;;;;10.25;6.80;;;;;;;3.96;73.03;99227.66;4501597;31;33870;-76
2022/04/03 06:18:08;;;;;;;11.32;7.60;;;;;;;3.57;73.11;99223.41;4500667;31;35010;-76
2022/04/03 06:20:36;;;;;;;12.10;8.55;;;;;;;3.69;73.75;99225.19;4501417;31;35028;-78
2022/04/03 06:23:15;;;;;;;12.63;8.60;;;;;;;3.32;75.01;99237.56;4501400;31;33383;-67
2022/04/03 06:25:44;;;;;;;11.77;8.30;;;;;;;3.69;74.40;99233.25;4501284;31;34625;-78
2022/04/03 06:28:12;;;;;;;11.73;8.60;;;;;;;3.15;75.92;99242.59;4501236;31;34140;-76
2022/04/03 06:30:40;;;;;;;12.35;8.07;;;;;;;3.54;74.97;99245.28;4500982;31;34003;-78
2022/04/03 06:33:08;;;;;;;12.13;8.43;;;;;;;3.75;73.48;99242.25;4504774;31;33488;-76
2022/04/03 06:35:36;;;;;;;11.85;8.35;;;;;;;3.22;75.52;99247.94;4515922;31;34691;-73
2022/04/03 06:38:11;;;;;;;13.05;8.75;;;;;;;3.48;74.57;99257.72;4515999;31;34309;-78
2022/04/03 06:40:41;;;;;;;11.88;8.35;;;;;;;3.71;74.08;99262.50;4516553;31;34999;-74
2022/04/03 06:43:08;;;;;;;12.90;9.05;;;;;;;3.39;75.48;99267.88;4517125;31;33557;-75
2022/04/03 06:45:36;;;;;;;13.85;9.80;;;;;;;3.37;76.22;99264.56;4515776;31;33793;-78
2022/04/03 06:48:07;;;;;;;14.93;10.50;;;;;;;3.47;75.52;99272.16;4516814;31;34190;-77
2022/04/03 06:50:34;;;;;;;13.65;9.85;;;;;;;3.69;74.21;99275.31;4516465;31;34337;-66
2022/04/03 06:53:03;;;;;;;15.98;10.48;;;;;;;3.85;74.24;99276.69;4515414;31;33815;-76
2022/04/03 06:55:31;;;;;;;13.15;9.80;;;;;;;3.81;74.07;99284.34;4516811;31;33858;-67
2022/04/03 06:57:59;;;;;;;14.35;10.10;;;;;;;3.88;74.22;99279.75;4515984;31;34007;-68
2022/04/03 07:00:27;;;;;;;15.93;10.70;;;;;;;3.54;75.36;99286.34;4516714;31;34385;-68
2022/04/03 07:02:55;;;;;;;14.30;9.88;;;;;;;3.79;74.03;99282.91;4515651;31;34465;-77
2022/04/03 07:05:23;;;;;;;16.17;10.60;;;;;;;4.11;72.87;99294.47;4514690;31;33668;-76
2022/04/03 07:07:54;;;;;;;17.48;11.40;;;;;;;3.85;74.41;99295.47;4507612;31;33680;-75
2022/04/03 07:10:21;;;;;;;16.17;10.82;;;;;;;3.67;75.53;99293.50;4505283;31;34254;-73
2022/04/03 07:12:48;;;;;;;16.92;11.50;;;;;;;3.77;74.04;99309.13;4500615;31;33719;-70
2022/04/03 07:15:16;;;;;;;21.48;13.23;;;;;;;3.96;74.12;99302.81;4500652;31;33814;-71
2022/04/03 07:17:44;;;;;;;19.10;13.50;;;;;;;3.55;75.38;99317.50;4500870;31;34958;-72
2022/04/03 07:20:13;;;;;;;20.35;13.98;;;;;;;3.65;75.17;99317.88;4507039;31;34388;-67
2022/04/03 07:22:44;;;;;;;24.30;15.95;;;;;;;3.84;75.11;99316.09;4515525;31;34632;-72
2022/04/03 07:25:12;;;;;;;25.60;16.45;;;;;;;3.36;75.85;99323.78;4516501;31;33639;-67
2022/04/03 07:27:41;;;;;;;0.90;0.90;;;;;;;3.15;76.66;99325.69;4498707;31;34194;-74
2022/04/03 07:30:11;;;;;;;24.12;16.48;;;;;;;3.17;76.56;99341.56;4507361;31;33819;-65
2022/04/03 07:32:39;;;;;;;29.30;17.95;;;;;;;3.69;75.24;99345.06;4516729;31;33525;-69
2022/04/03 07:35:08;;;;;;;27.35;17.17;;;;;;;3.68;74.90;99346.94;4516186;31;34949;-71
2022/04/03 07:37:35;;;;;;;27.37;17.55;;;;;;;2.73;78.09;99351.97;4516137;31;34226;-68
2022/04/03 07:40:04;;;;;;;25.62;15.82;;;;;;;3.44;76.97;99355.72;4515403;31;34170;-66
2022/04/03 07:42:32;;;;;;;26.75;16.80;;;;;;;3.34;77.09;99358.03;4516641;31;34600;-70
2022/04/03 07:44:59;;;;;;;22.67;14.50;;;;;;;4.01;74.90;99369.28;4516851;31;33915;-73
2022/04/03 07:47:27;;;;;;;21.50;14.38;;;;;;;4.56;72.36;99371.38;4516536;31;34200;-69
2022/04/03 07:49:54;;;;;;;21.35;14.27;;;;;;;4.51;71.45;99367.50;4516456;31;34153;-73
2022/04/03 07:52:22;;;;;;;21.50;14.27;;;;;;;4.15;72.10;99378.91;4516602;31;33754;-71
2022/04/03 07:54:49;;;;;;;22.58;14.40;;;;;;;3.59;74.73;99383.09;4516353;31;33890;-73
2022/04/03 07:57:19;;;;;;;19.87;13.62;;;;;;;3.86;73.30;99391.03;4514832;31;34220;-67
2022/04/03 07:59:46;;;;;;;18.73;13.52;;;;;;;3.89;73.45;99394.13;4516303;31;34228;-66
2022/04/03 08:02:14;;;;;;;21.85;13.80;;;;;;;4.05;73.16;99398.16;4516236;31;33877;-64
2022/04/03 08:04:42;;;;;;;23.40;13.98;;;;;;;3.47;73.43;99399.00;4515772;31;34746;-64
2022/04/03 08:07:09;;;;;;;22.98;13.52;;;;;;;3.15;76.07;99399.94;4518310;31;34022;-69
2022/04/03 08:09:36;;;;;;;20.48;13.52;;;;;;;3.76;73.81;99406.75;4518326;31;34190;-67
2022/04/03 08:12:05;;;;;;;20.17;12.80;;;;;;;2.97;73.55;99406.75;4518364;31;33763;-67
2022/04/03 08:14:32;;;;;;;19.35;12.57;;;;;;;3.52;73.67;99416.34;4518379;31;34587;-68
2022/04/03 08:17:00;;;;;;;17.27;12.32;;;;;;;3.51;72.33;99418.19;4518053;31;34199;-68
2022/04/03 08:19:28;;;;;;;20.62;12.27;;;;;;;3.77;72.08;99416.47;4518241;31;34223;-67
2022/04/03 08:21:56;;;;;;;19.90;13.00;;;;;;;3.77;73.66;99424.53;4516493;31;33801;-70
2022/04/03 08:24:23;;;;;;;15.40;11.40;;;;;;;3.43;72.73;99426.47;4514670;31;33800;-72
2022/04/03 08:26:51;;;;;;;17.67;11.80;;;;;;;3.08;73.95;99432.09;4514716;31;34226;-68
2022/04/03 08:29:19;;;;;;;17.42;11.55;;;;;;;3.12;72.38;99441.38;4517604;31;34126;-67
2022/04/03 08:31:46;;;;;;;19.27;12.35;;;;;;;3.56;73.34;99439.03;4507648;31;33207;-71
2022/04/03 08:34:14;;;;;;;17.65;12.50;;;;;;;3.10;73.73;99443.44;4517349;31;33837;-72
2022/04/03 08:37:01;;;;;;;17.95;12.10;;;;;;;3.36;73.88;99449.81;4518037;31;34975;-78
2022/04/03 08:39:29;;;;;;;19.02;12.25;;;;;;;3.59;74.04;99450.16;4513432;31;34353;-68
2022/04/03 08:41:56;;;;;;;17.42;11.12;;;;;;;3.46;70.52;99453.69;4507403;31;33737;-70
2022/04/03 08:44:24;;;;;;;18.92;12.37;;;;;;;3.65;71.25;99453.84;4503910;31;34085;-73
2022/04/03 08:46:54;;;;;;;16.20;11.43;;;;;;;3.52;73.16;99449.38;4516933;31;34003;-68
2022/04/03 08:49:22;;;;;;;17.85;12.02;;;;;;;3.46;71.63;99455.56;4509458;31;34306;-67
2022/04/03 08:51:50;;;;;;;18.45;12.10;;;;;;;3.85;70.82;99451.94;4517485;31;33917;-68
2022/04/03 08:54:19;;;;;;;19.27;11.68;;;;;;;4.34;70.50;99456.88;4517640;31;33840;-69
2022/04/03 08:56:47;;;;;;;20.42;12.05;;;;;;;4.15;69.98;99463.97;4516660;31;34655;-69
2022/04/03 08:59:14;;;;;;;21.40;13.68;;;;;;;4.03;70.70;99461.16;4516386;31;34146;-68
2022/04/03 09:01:42;;;;;;;21.23;12.70;;;;;;;4.27;70.32;99464.97;4517091;31;33637;-68
2022/04/03 09:04:09;;;;;;;18.62;12.50;;;;;;;4.83;68.97;99463.38;4513343;31;34105;-71
2022/04/03 09:06:59;;;;;;;19.08;12.50;;;;;;;4.86;69.59;99468.31;4514801;31;32866;-67
2022/04/03 09:09:28;;;;;;;17.15;12.35;;;;;;;4.22;70.91;99464.78;4516525;31;34354;-68
2022/04/03 09:12:11;;;;;;;18.48;12.05;;;;;;;4.96;69.52;99463.25;4516067;31;33682;-67
2022/04/03 09:14:51;;;;;;;18.60;11.85;;;;;;;5.37;68.09;99461.88;4516539;31;33914;-67
2022/04/03 09:17:38;;;;;;;19.92;12.85;;;;;;;5.32;68.75;99465.22;4516156;31;34840;-67
2022/04/03 09:20:09;;;;;;;18.85;12.35;;;;;;;5.65;70.08;99476.72;4509923;31;33996;-67
2022/04/03 09:22:37;;;;;;;20.35;13.32;;;;;;;6.10;66.78;99484.53;4500636;31;33953;-67
2022/04/03 09:25:07;;;;;;;17.83;12.75;;;;;;;5.80;67.68;99476.34;4500443;31;34681;-67
2022/04/03 09:27:35;;;;;;;21.85;12.98;;;;;;;5.91;68.85;99478.28;4500173;31;33985;-70
2022/04/03 09:30:05;;;;;;;17.00;12.37;;;;;;;5.86;66.06;99478.16;4500479;31;34799;-66
2022/04/03 09:32:33;;;;;;;17.77;12.68;;;;;;;6.74;64.64;99479.53;4500157;31;33707;-71
2022/04/03 09:35:01;;;;;;;16.80;11.95;;;;;;;6.69;66.41;99495.53;4500676;31;33410;-71
2022/04/03 09:37:32;;;;;;;18.80;12.05;;;;;;;6.13;65.59;99490.28;4500420;31;34065;-70
2022/04/03 09:40:00;;;;;;;19.87;12.88;;;;;;;6.40;65.34;99491.81;4500479;31;33849;-66
2022/04/03 09:42:28;;;;;;;15.93;11.85;;;;;;;7.08;64.65;99501.38;4500436;31;34386;-66
2022/04/03 09:45:03;;;;;;;17.48;11.68;;;;;;;7.00;65.82;99502.56;4500470;31;34752;-71
2022/04/03 09:47:32;;;;;;;20.70;12.15;;;;;;;5.70;66.06;99495.69;4499801;31;34203;-68
2022/04/03 09:50:05;;;;;;;16.98;11.00;;;;;;;6.50;66.68;99495.59;4509087;31;34077;-68
2022/04/03 09:52:47;;;;;;;17.55;11.88;;;;;;;5.94;65.47;99507.47;4516431;31;33642;-69
2022/04/03 09:55:17;;;;;;;17.48;11.57;;;;;;;5.75;64.95;99512.03;4516486;31;33628;-69
2022/04/03 09:57:46;;;;;;;17.25;11.73;;;;;;;5.87;66.75;99512.09;4516141;31;33900;-71
2022/04/03 10:00:40;;;;;;;16.10;11.32;;;;;;;6.01;67.40;99528.97;4515144;31;34107;-72
2022/04/03 10:03:13;;;;;;;18.08;11.75;;;;;;;6.83;63.82;99532.06;4515831;31;33511;-70
2022/04/03 10:05:42;;;;;;;18.90;11.57;;;;;;;6.96;62.48;99514.88;4514933;31;33958;-70
2022/04/03 10:08:10;;;;;;;17.87;10.93;;;;;;;7.16;60.17;99528.84;4516162;31;34158;-72
2022/04/03 10:10:38;;;;;;;16.35;11.07;;;;;;;6.96;61.70;99523.78;4515999;31;34910;-69
2022/04/03 10:13:06;;;;;;;16.35;11.27;;;;;;;6.16;62.96;99521.34;4516202;31;34456;-71
2022/04/03 10:15:34;;;;;;;15.18;11.12;;;;;;;6.23;64.94;99540.09;4516126;31;33869;-70
2022/04/03 10:18:03;;;;;;;16.00;10.65;;;;;;;6.96;62.29;99531.03;4514611;31;34304;-71
2022/04/03 10:20:34;;;;;;;17.90;10.90;;;;;;;6.33;62.52;99537.72;4505293;31;34189;-70
2022/04/03 10:23:11;;;;;;;17.48;11.98;;;;;;;6.67;62.96;99530.00;4504854;31;33897;-74
2022/04/03 10:25:44;;;;;;;17.08;11.93;;;;;;;7.55;63.85;99540.03;4514727;31;34819;-71
2022/04/03 10:28:13;;;;;;;15.85;10.75;;;;;;;7.63;60.94;99538.88;4513712;31;34230;-68
2022/04/03 10:30:44;;;;;;;15.98;10.80;;;;;;;8.40;58.49;99544.09;4514460;31;34097;-73
2022/04/03 10:33:21;;;;;;;14.18;9.90;;;;;;;8.73;56.98;99547.97;4515386;31;33901;-69
2022/04/03 10:36:04;;;;;;;15.90;10.27;;;;;;;7.72;54.94;99542.06;4515976;31;33735;-69
2022/04/03 10:39:11;;;;;;;15.15;9.88;;;;;;;7.15;58.02;99551.50;4515769;31;34167;-71
2022/04/03 10:41:43;;;;;;;13.52;9.27;;;;;;;7.55;57.73;99550.03;4516034;31;34547;-71
2022/04/03 10:44:22;;;;;;;16.87;9.77;;;;;;;7.79;57.51;99553.53;4515863;31;34507;-71
2022/04/03 10:47:04;;;;;;;15.02;9.85;;;;;;;8.39;56.64;99555.94;4515328;31;33549;-70
2022/04/03 10:49:42;;;;;;;14.63;10.20;;;;;;;7.65;56.51;99547.56;4515777;31;34181;-70
2022/04/03 10:52:37;;;;;;;14.75;10.13;;;;;;;8.11;56.16;99555.88;4515900;31;34330;-72
2022/04/03 10:55:11;;;;;;;16.17;10.43;;;;;;;6.79;55.31;99547.06;4515638;31;33395;-71
2022/04/03 10:57:49;;;;;;;13.70;9.45;;;;;;;6.43;56.25;99548.75;4515776;31;33662;-70
2022/04/03 11:00:17;;;;;;;15.85;10.10;;;;;;;6.29;57.91;99547.28;4514431;31;34302;-71
2022/04/03 11:02:50;;;;;;;12.82;10.07;;;;;;;7.24;59.03;99551.19;4515351;31;34216;-68
2022/04/03 11:05:27;;;;;;;15.48;10.63;;;;;;;6.82;58.57;99556.56;4514491;31;33405;-68
2022/04/03 11:08:00;;;;;;;17.10;10.77;;;;;;;7.39;61.29;99557.75;4515694;31;33942;-71
2022/04/03 11:10:49;;;;;;;15.15;9.93;;;;;;;6.93;61.00;99558.47;4515709;31;33846;-69
2022/04/03 11:13:17;;;;;;;14.38;9.80;;;;;;;7.69;58.62;99564.94;4515695;31;34690;-70
2022/04/03 11:15:46;;;;;;;13.00;9.32;;;;;;;6.90;53.91;99558.94;4514453;31;34598;-68
2022/04/03 11:18:26;;;;;;;14.20;9.60;;;;;;;7.59;55.18;99572.81;4515181;31;34951;-69
2022/04/03 11:21:18;;;;;;;15.98;9.88;;;;;;;7.57;54.53;99578.44;4515669;31;34073;-72
2022/04/03 11:23:49;;;;;;;12.73;9.63;;;;;;;7.91;50.89;99575.16;4515331;31;34113;-68
2022/04/03 11:26:18;;;;;;;13.25;8.85;;;;;;;9.13;53.60;99571.44;4511389;31;33759;-70
2022/04/03 11:28:45;;;;;;;12.27;9.10;;;;;;;8.28;52.31;99586.53;4514713;31;32892;-71
2022/04/03 11:31:13;;;;;;;13.20;9.10;;;;;;;8.80;53.88;99573.00;4514280;31;35157;-72
2022/04/03 11:33:42;;;;;;;13.48;9.20;;;;;;;7.67;51.25;99587.84;4515091;31;35080;-72
2022/04/03 11:36:12;;;;;;;14.68;9.85;;;;;;;7.60;51.71;99572.59;4515600;31;33768;-72
2022/04/03 11:38:44;;;;;;;13.55;9.55;;;;;;;7.18;51.81;99572.59;4516539;31;34447;-70
2022/04/03 11:41:34;;;;;;;13.45;8.60;;;;;;;7.70;56.84;99582.78;4515374;31;33732;-71